sensor_id;sensor_type;location;lat;lon;timestamp;pressure;altitude;pressure_sealevel;temperature;humidity
84310;BME280;74488;49.036;11.472;2024-01-06T00:00:58;96150.31;;;4.59;90.71
84310;BME280;74488;49.036;11.472;2024-01-06T00:02:00;96147.75;;;4.57;90.48
84310;BME280;74488;49.036;11.472;2024-01-06T00:03:03;96152.84;;;4.60;90.67
84310;BME280;74488;49.036;11.472;2024-01-06T00:04:04;96148.34;;;4.62;90.55
84310;BME280;74488;49.036;11.472;2024-01-06T00:05:06;96135.00;;;4.50;90.50
84310;BME280;74488;49.036;11.472;2024-01-06T00:06:11;96150.31;;;4.59;90.66
84310;BME280;74488;49.036;11.472;2024-01-06T00:07:13;96154.47;;;4.63;90.52
84310;BME280;74488;49.036;11.472;2024-01-06T00:08:16;96144.09;;;4.60;89.98
84310;BME280;74488;49.036;11.472;2024-01-06T00:09:17;96151.06;;;4.61;90.26
84310;BME280;74488;49.036;11.472;2024-01-06T00:10:19;96159.00;;;4.61;90.41
84310;BME280;74488;49.036;11.472;2024-01-06T00:11:21;96154.84;;;4.57;90.67
84310;BME280;74488;49.036;11.472;2024-01-06T00:12:23;96154.75;;;4.58;90.66
84310;BME280;74488;49.036;11.472;2024-01-06T00:13:24;96160.88;;;4.59;90.75
84310;BME280;74488;49.036;11.472;2024-01-06T00:14:26;96151.94;;;4.61;90.57
84310;BME280;74488;49.036;11.472;2024-01-06T00:15:27;96157.22;;;4.61;90.46
84310;BME280;74488;49.036;11.472;2024-01-06T00:16:29;96148.72;;;4.56;90.63
84310;BME280;74488;49.036;11.472;2024-01-06T00:17:30;96153.81;;;4.59;90.63
84310;BME280;74488;49.036;11.472;2024-01-06T00:18:32;96155.78;;;4.56;90.74
84310;BME280;74488;49.036;11.472;2024-01-06T00:19:33;96159.28;;;4.56;90.41
84310;BME280;74488;49.036;11.472;2024-01-06T00:20:35;96148.72;;;4.56;90.58
84310;BME280;74488;49.036;11.472;2024-01-06T00:21:37;96143.59;;;4.53;90.67
84310;BME280;74488;49.036;11.472;2024-01-06T00:22:38;96140.78;;;4.56;90.56
84310;BME280;74488;49.036;11.472;2024-01-06T00:23:40;96156.47;;;4.59;90.35
84310;BME280;74488;49.036;11.472;2024-01-06T00:24:42;96153.03;;;4.57;90.45
84310;BME280;74488;49.036;11.472;2024-01-06T00:25:43;96149.63;;;4.55;90.63
84310;BME280;74488;49.036;11.472;2024-01-06T00:26:45;96157.66;;;4.54;90.55
84310;BME280;74488;49.036;11.472;2024-01-06T00:27:46;96142.47;;;4.57;90.43
84310;BME280;74488;49.036;11.472;2024-01-06T00:28:48;96150.13;;;4.62;90.26
84310;BME280;74488;49.036;11.472;2024-01-06T00:29:52;96150.22;;;4.60;90.62
84310;BME280;74488;49.036;11.472;2024-01-06T00:30:54;96152.03;;;4.60;90.25
84310;BME280;74488;49.036;11.472;2024-01-06T00:31:55;96155.50;;;4.60;90.44
84310;BME280;74488;49.036;11.472;2024-01-06T00:32:57;96143.78;;;4.50;90.17
84310;BME280;74488;49.036;11.472;2024-01-06T00:33:58;96155.66;;;4.57;90.82
84310;BME280;74488;49.036;11.472;2024-01-06T00:35:00;96149.75;;;4.54;91.11
84310;BME280;74488;49.036;11.472;2024-01-06T00:36:02;96148.72;;;4.56;90.63
84310;BME280;74488;49.036;11.472;2024-01-06T00:37:04;96155.59;;;4.59;90.66
84310;BME280;74488;49.036;11.472;2024-01-06T00:38:05;96147.84;;;4.56;90.79
84310;BME280;74488;49.036;11.472;2024-01-06T00:39:06;96153.81;;;4.59;90.61
84310;BME280;74488;49.036;11.472;2024-01-06T00:40:08;96158.13;;;4.60;90.82
84310;BME280;74488;49.036;11.472;2024-01-06T00:41:10;96145.09;;;4.57;90.73
84310;BME280;74488;49.036;11.472;2024-01-06T00:42:12;96144.47;;;4.54;90.97
84310;BME280;74488;49.036;11.472;2024-01-06T00:43:13;96152.47;;;4.52;90.83
84310;BME280;74488;49.036;11.472;2024-01-06T00:44:15;96157.50;;;4.57;90.69
84310;BME280;74488;49.036;11.472;2024-01-06T00:45:16;96152.09;;;4.58;90.57
84310;BME280;74488;49.036;11.472;2024-01-06T00:46:18;96150.50;;;4.56;91.14
84310;BME280;74488;49.036;11.472;2024-01-06T00:47:20;96155.59;;;4.59;90.73
84310;BME280;74488;49.036;11.472;2024-01-06T00:48:23;96159.94;;;4.60;90.67
84310;BME280;74488;49.036;11.472;2024-01-06T00:49:25;96156.28;;;4.62;90.94
84310;BME280;74488;49.036;11.472;2024-01-06T00:50:27;96159.84;;;4.61;91.11
84310;BME280;74488;49.036;11.472;2024-01-06T00:51:28;96153.63;;;4.62;90.72
84310;BME280;74488;49.036;11.472;2024-01-06T00:52:30;96155.41;;;4.62;90.98
84310;BME280;74488;49.036;11.472;2024-01-06T00:53:34;96154.75;;;4.58;91.11
84310;BME280;74488;49.036;11.472;2024-01-06T00:54:35;96149.81;;;4.52;90.98
84310;BME280;74488;49.036;11.472;2024-01-06T00:55:37;96131.84;;;4.43;91.31
84310;BME280;74488;49.036;11.472;2024-01-06T00:56:39;96147.00;;;4.55;91.12
84310;BME280;74488;49.036;11.472;2024-01-06T00:57:40;96154.00;;;4.56;90.76
84310;BME280;74488;49.036;11.472;2024-01-06T00:58:44;96151.41;;;4.55;91.22
84310;BME280;74488;49.036;11.472;2024-01-06T00:59:46;96145.56;;;4.50;91.22
84310;BME280;74488;49.036;11.472;2024-01-06T01:00:48;96154.84;;;4.57;91.25
84310;BME280;74488;49.036;11.472;2024-01-06T01:01:50;96146.41;;;4.50;91.02
84310;BME280;74488;49.036;11.472;2024-01-06T01:02:51;96164.38;;;4.59;90.97
84310;BME280;74488;49.036;11.472;2024-01-06T01:03:53;96165.41;;;4.57;90.96
84310;BME280;74488;49.036;11.472;2024-01-06T01:04:54;96158.59;;;4.53;90.99
84310;BME280;74488;49.036;11.472;2024-01-06T01:05:56;96165.31;;;4.58;90.92
84310;BME280;74488;49.036;11.472;2024-01-06T01:06:58;96165.31;;;4.58;90.76
84310;BME280;74488;49.036;11.472;2024-01-06T01:07:59;96161.13;;;4.54;90.71
84310;BME280;74488;49.036;11.472;2024-01-06T01:09:01;96166.41;;;4.54;91.05
84310;BME280;74488;49.036;11.472;2024-01-06T01:10:02;96161.34;;;4.51;90.97
84310;BME280;74488;49.036;11.472;2024-01-06T01:11:04;96170.41;;;4.61;90.71
84310;BME280;74488;49.036;11.472;2024-01-06T01:12:06;96172.88;;;4.64;90.57
84310;BME280;74488;49.036;11.472;2024-01-06T01:13:07;96174.66;;;4.64;90.46
84310;BME280;74488;49.036;11.472;2024-01-06T01:14:09;96173.81;;;4.63;90.86
84310;BME280;74488;49.036;11.472;2024-01-06T01:15:11;96156.63;;;4.56;90.62
84310;BME280;74488;49.036;11.472;2024-01-06T01:16:12;96177.47;;;4.61;90.64
84310;BME280;74488;49.036;11.472;2024-01-06T01:17:14;96168.81;;;4.59;90.75
84310;BME280;74488;49.036;11.472;2024-01-06T01:18:16;96172.31;;;4.59;90.80
84310;BME280;74488;49.036;11.472;2024-01-06T01:19:20;96165.25;;;4.60;90.82
84310;BME280;74488;49.036;11.472;2024-01-06T01:20:22;96115.31;;;4.26;90.23
84310;BME280;74488;49.036;11.472;2024-01-06T01:21:24;96165.25;;;4.60;90.74
84310;BME280;74488;49.036;11.472;2024-01-06T01:22:25;96168.69;;;4.60;90.63
84310;BME280;74488;49.036;11.472;2024-01-06T01:23:27;96150.00;;;4.49;90.46
84310;BME280;74488;49.036;11.472;2024-01-06T01:24:29;96170.53;;;4.60;90.70
84310;BME280;74488;49.036;11.472;2024-01-06T01:25:30;96164.56;;;4.56;90.94
84310;BME280;74488;49.036;11.472;2024-01-06T01:26:32;96165.59;;;4.54;91.07
84310;BME280;74488;49.036;11.472;2024-01-06T01:27:34;96139.38;;;4.35;91.14
84310;BME280;74488;49.036;11.472;2024-01-06T01:28:36;96158.03;;;4.48;90.77
84310;BME280;74488;49.036;11.472;2024-01-06T01:29:37;96173.50;;;4.54;91.24
84310;BME280;74488;49.036;11.472;2024-01-06T01:30:39;96137.28;;;4.26;91.58
84310;BME280;74488;49.036;11.472;2024-01-06T01:31:41;96147.47;;;4.32;91.54
84310;BME280;74488;49.036;11.472;2024-01-06T01:32:43;96170.38;;;4.47;91.62
84310;BME280;74488;49.036;11.472;2024-01-06T01:33:44;96174.63;;;4.50;91.64
84310;BME280;74488;49.036;11.472;2024-01-06T01:34:46;96165.09;;;4.47;91.34
84310;BME280;74488;49.036;11.472;2024-01-06T01:35:48;96154.69;;;4.44;91.33
84310;BME280;74488;49.036;11.472;2024-01-06T01:36:50;96167.28;;;4.55;90.98
84310;BME280;74488;49.036;11.472;2024-01-06T01:37:51;96160.19;;;4.55;91.00
84310;BME280;74488;49.036;11.472;2024-01-06T01:38:53;96165.31;;;4.58;91.08
84310;BME280;74488;49.036;11.472;2024-01-06T01:39:55;96159.28;;;4.56;90.88
84310;BME280;74488;49.036;11.472;2024-01-06T01:40:56;96162.66;;;4.58;91.16
84310;BME280;74488;49.036;11.472;2024-01-06T01:41:58;96154.84;;;4.57;91.06
84310;BME280;74488;49.036;11.472;2024-01-06T01:43:00;96160.19;;;4.55;91.26
84310;BME280;74488;49.036;11.472;2024-01-06T01:44:01;96163.69;;;4.56;91.14
84310;BME280;74488;49.036;11.472;2024-01-06T01:45:04;96164.56;;;4.56;91.33
84310;BME280;74488;49.036;11.472;2024-01-06T01:46:06;96170.59;;;4.58;91.08
84310;BME280;74488;49.036;11.472;2024-01-06T01:47:08;96172.47;;;4.56;91.30
84310;BME280;74488;49.036;11.472;2024-01-06T01:48:09;96166.34;;;4.56;91.57
84310;BME280;74488;49.036;11.472;2024-01-06T01:49:11;96169.66;;;4.59;91.37
84310;BME280;74488;49.036;11.472;2024-01-06T01:50:13;96128.41;;;4.43;91.61
84310;BME280;74488;49.036;11.472;2024-01-06T01:51:15;96135.28;;;4.45;91.24
84310;BME280;74488;49.036;11.472;2024-01-06T01:52:17;96163.69;;;4.56;91.41
84310;BME280;74488;49.036;11.472;2024-01-06T01:53:19;96159.44;;;4.53;91.35
84310;BME280;74488;49.036;11.472;2024-01-06T01:54:21;96160.56;;;4.49;91.29
84310;BME280;74488;49.036;11.472;2024-01-06T01:55:22;96142.81;;;4.37;91.29
84310;BME280;74488;49.036;11.472;2024-01-06T01:56:25;96167.44;;;4.52;91.27
84310;BME280;74488;49.036;11.472;2024-01-06T01:57:27;96167.38;;;4.53;91.71
84310;BME280;74488;49.036;11.472;2024-01-06T01:58:29;96166.53;;;4.53;91.20
84310;BME280;74488;49.036;11.472;2024-01-06T01:59:31;96154.53;;;4.47;91.68
84310;BME280;74488;49.036;11.472;2024-01-06T02:00:32;96161.53;;;4.48;91.40
84310;BME280;74488;49.036;11.472;2024-01-06T02:01:34;96169.25;;;4.51;91.49
84310;BME280;74488;49.036;11.472;2024-01-06T02:02:35;96167.56;;;4.50;92.02
84310;BME280;74488;49.036;11.472;2024-01-06T02:03:37;96112.19;;;4.19;91.48
84310;BME280;74488;49.036;11.472;2024-01-06T02:04:39;96168.47;;;4.49;91.66
84310;BME280;74488;49.036;11.472;2024-01-06T02:05:41;96165.84;;;4.49;91.27
84310;BME280;74488;49.036;11.472;2024-01-06T02:06:42;96167.56;;;4.50;91.51
84310;BME280;74488;49.036;11.472;2024-01-06T02:07:44;96161.59;;;4.47;91.86
84310;BME280;74488;49.036;11.472;2024-01-06T02:08:46;96174.72;;;4.48;91.70
84310;BME280;74488;49.036;11.472;2024-01-06T02:09:47;96169.44;;;4.48;91.83
84310;BME280;74488;49.036;11.472;2024-01-06T02:10:49;96127.91;;;4.21;91.85
84310;BME280;74488;49.036;11.472;2024-01-06T02:11:51;96170.38;;;4.47;91.44
84310;BME280;74488;49.036;11.472;2024-01-06T02:12:52;96169.69;;;4.44;92.02
84310;BME280;74488;49.036;11.472;2024-01-06T02:13:54;96173.00;;;4.47;91.67
84310;BME280;74488;49.036;11.472;2024-01-06T02:14:55;96174.78;;;4.47;91.84
84310;BME280;74488;49.036;11.472;2024-01-06T02:15:57;96176.50;;;4.48;91.90
84310;BME280;74488;49.036;11.472;2024-01-06T02:16:58;96168.75;;;4.45;91.74
84310;BME280;74488;49.036;11.472;2024-01-06T02:18:00;96168.66;;;4.46;91.84
84310;BME280;74488;49.036;11.472;2024-01-06T02:19:02;96142.47;;;4.28;91.73
84310;BME280;74488;49.036;11.472;2024-01-06T02:20:05;96165.09;;;4.47;91.62
84310;BME280;74488;49.036;11.472;2024-01-06T02:21:08;96162.78;;;4.41;91.91
84310;BME280;74488;49.036;11.472;2024-01-06T02:22:10;96173.88;;;4.48;91.56
84310;BME280;74488;49.036;11.472;2024-01-06T02:23:12;96173.00;;;4.47;91.77
84310;BME280;74488;49.036;11.472;2024-01-06T02:24:13;96168.66;;;4.46;91.79
84310;BME280;74488;49.036;11.472;2024-01-06T02:25:15;96164.16;;;4.48;91.49
84310;BME280;74488;49.036;11.472;2024-01-06T02:26:17;96169.34;;;4.50;91.29
84310;BME280;74488;49.036;11.472;2024-01-06T02:27:20;96173.75;;;4.49;91.91
84310;BME280;74488;49.036;11.472;2024-01-06T02:28:22;96178.13;;;4.50;91.73
84310;BME280;74488;49.036;11.472;2024-01-06T02:29:23;96178.13;;;4.50;91.59
84310;BME280;74488;49.036;11.472;2024-01-06T02:30:25;96167.56;;;4.50;91.49
84310;BME280;74488;49.036;11.472;2024-01-06T02:31:27;96178.13;;;4.50;91.64
84310;BME280;74488;49.036;11.472;2024-01-06T02:32:29;96172.91;;;4.49;91.64
84310;BME280;74488;49.036;11.472;2024-01-06T02:33:30;96157.78;;;4.37;91.34
84310;BME280;74488;49.036;11.472;2024-01-06T02:34:32;96162.34;;;4.49;91.54
84310;BME280;74488;49.036;11.472;2024-01-06T02:35:34;96132.78;;;4.28;91.20
84310;BME280;74488;49.036;11.472;2024-01-06T02:36:36;96167.72;;;4.47;91.32
84310;BME280;74488;49.036;11.472;2024-01-06T02:37:38;96171.06;;;4.51;91.41
84310;BME280;74488;49.036;11.472;2024-01-06T02:38:39;96171.81;;;4.53;91.48
84310;BME280;74488;49.036;11.472;2024-01-06T02:39:41;96166.53;;;4.53;91.34
84310;BME280;74488;49.036;11.472;2024-01-06T02:40:42;96170.19;;;4.50;91.08
84310;BME280;74488;49.036;11.472;2024-01-06T02:41:44;96168.66;;;4.46;91.47
84310;BME280;74488;49.036;11.472;2024-01-06T02:42:45;96169.63;;;4.45;91.71
84310;BME280;74488;49.036;11.472;2024-01-06T02:43:47;96165.25;;;4.44;91.39
84310;BME280;74488;49.036;11.472;2024-01-06T02:44:48;96166.88;;;4.47;91.32
84310;BME280;74488;49.036;11.472;2024-01-06T02:45:50;96175.66;;;4.47;91.64
84310;BME280;74488;49.036;11.472;2024-01-06T02:46:51;96172.25;;;4.45;91.54
84310;BME280;74488;49.036;11.472;2024-01-06T02:47:53;96165.44;;;4.41;91.52
84310;BME280;74488;49.036;11.472;2024-01-06T02:48:55;96170.72;;;4.41;91.48
84310;BME280;74488;49.036;11.472;2024-01-06T02:49:56;96155.41;;;4.32;91.86
84310;BME280;74488;49.036;11.472;2024-01-06T02:50:58;96169.69;;;4.44;91.39
84310;BME280;74488;49.036;11.472;2024-01-06T02:51:59;96171.28;;;4.46;91.56
84310;BME280;74488;49.036;11.472;2024-01-06T02:53:01;96171.28;;;4.46;91.19
84310;BME280;74488;49.036;11.472;2024-01-06T02:54:03;96169.44;;;4.48;91.30
84310;BME280;74488;49.036;11.472;2024-01-06T02:55:05;96171.22;;;4.48;91.13
84310;BME280;74488;49.036;11.472;2024-01-06T02:56:13;96170.66;;;4.43;91.18
84310;BME280;74488;49.036;11.472;2024-01-06T02:57:14;96162.97;;;4.38;91.52
84310;BME280;74488;49.036;11.472;2024-01-06T02:58:16;96168.84;;;4.43;91.61
84310;BME280;74488;49.036;11.472;2024-01-06T02:59:17;96174.13;;;4.43;91.73
84310;BME280;74488;49.036;11.472;2024-01-06T03:00:19;96169.00;;;4.40;91.95
84310;BME280;74488;49.036;11.472;2024-01-06T03:01:21;96173.13;;;4.46;91.71
84310;BME280;74488;49.036;11.472;2024-01-06T03:02:23;96174.72;;;4.48;91.33
84310;BME280;74488;49.036;11.472;2024-01-06T03:03:24;96173.69;;;4.51;91.75
84310;BME280;74488;49.036;11.472;2024-01-06T03:04:26;96174.72;;;4.48;91.33
84310;BME280;74488;49.036;11.472;2024-01-06T03:05:28;96167.16;;;4.42;91.56
84310;BME280;74488;49.036;11.472;2024-01-06T03:06:29;96187.16;;;4.46;91.79
84310;BME280;74488;49.036;11.472;2024-01-06T03:07:31;96183.00;;;4.42;91.61
84310;BME280;74488;49.036;11.472;2024-01-06T03:08:32;96182.72;;;4.47;91.67
84310;BME280;74488;49.036;11.472;2024-01-06T03:09:35;96181.88;;;4.46;91.63
84310;BME280;74488;49.036;11.472;2024-01-06T03:10:37;96184.50;;;4.46;91.66
84310;BME280;74488;49.036;11.472;2024-01-06T03:11:39;96186.22;;;4.47;91.68
84310;BME280;74488;49.036;11.472;2024-01-06T03:12:40;96165.97;;;4.32;91.98
84310;BME280;74488;49.036;11.472;2024-01-06T03:13:42;96174.13;;;4.43;91.76
84310;BME280;74488;49.036;11.472;2024-01-06T03:14:44;96187.16;;;4.46;91.93
84310;BME280;74488;49.036;11.472;2024-01-06T03:15:45;96181.09;;;4.44;91.62
84310;BME280;74488;49.036;11.472;2024-01-06T03:16:47;96184.69;;;4.43;91.92
84310;BME280;74488;49.036;11.472;2024-01-06T03:17:48;96187.25;;;4.45;92.11
84310;BME280;74488;49.036;11.472;2024-01-06T03:18:50;96136.69;;;4.21;91.32
84310;BME280;74488;49.036;11.472;2024-01-06T03:19:52;96184.31;;;4.49;91.54
84310;BME280;74488;49.036;11.472;2024-01-06T03:20:53;96178.41;;;4.46;91.69
84310;BME280;74488;49.036;11.472;2024-01-06T03:21:55;96181.69;;;4.49;91.65
84310;BME280;74488;49.036;11.472;2024-01-06T03:22:57;96191.31;;;4.50;91.69
84310;BME280;74488;49.036;11.472;2024-01-06T03:23:58;96186.22;;;4.47;91.74
84310;BME280;74488;49.036;11.472;2024-01-06T03:25:00;96182.72;;;4.47;91.88
84310;BME280;74488;49.036;11.472;2024-01-06T03:26:05;96178.19;;;4.49;91.81
84310;BME280;74488;49.036;11.472;2024-01-06T03:27:07;96184.44;;;4.48;91.74
84310;BME280;74488;49.036;11.472;2024-01-06T03:28:10;96178.47;;;4.44;91.45
84310;BME280;74488;49.036;11.472;2024-01-06T03:29:11;96185.28;;;4.48;91.46
84310;BME280;74488;49.036;11.472;2024-01-06T03:30:13;96184.50;;;4.46;91.77
84310;BME280;74488;49.036;11.472;2024-01-06T03:31:15;96177.53;;;4.45;91.63
84310;BME280;74488;49.036;11.472;2024-01-06T03:32:16;96190.47;;;4.50;91.76
84310;BME280;74488;49.036;11.472;2024-01-06T03:33:18;96187.81;;;4.50;91.70
84310;BME280;74488;49.036;11.472;2024-01-06T03:34:19;96184.50;;;4.46;91.72
84310;BME280;74488;49.036;11.472;2024-01-06T03:35:21;96186.03;;;4.50;91.56
84310;BME280;74488;49.036;11.472;2024-01-06T03:36:23;96192.25;;;4.49;91.96
84310;BME280;74488;49.036;11.472;2024-01-06T03:37:24;96188.69;;;4.50;91.84
84310;BME280;74488;49.036;11.472;2024-01-06T03:38:26;96197.53;;;4.49;91.64
84310;BME280;74488;49.036;11.472;2024-01-06T03:39:27;96196.78;;;4.47;91.99
84310;BME280;74488;49.036;11.472;2024-01-06T03:40:29;96197.72;;;4.46;92.22
84310;BME280;74488;49.036;11.472;2024-01-06T03:41:30;96200.34;;;4.46;92.00
84310;BME280;74488;49.036;11.472;2024-01-06T03:42:32;96196.03;;;4.45;91.98
84310;BME280;74488;49.036;11.472;2024-01-06T03:43:34;96195.94;;;4.47;92.24
84310;BME280;74488;49.036;11.472;2024-01-06T03:44:35;96197.63;;;4.48;91.98
84310;BME280;74488;49.036;11.472;2024-01-06T03:45:37;96189.13;;;4.43;91.98
84310;BME280;74488;49.036;11.472;2024-01-06T03:46:38;96201.13;;;4.48;91.66
84310;BME280;74488;49.036;11.472;2024-01-06T03:47:40;96190.56;;;4.48;92.27
84310;BME280;74488;49.036;11.472;2024-01-06T03:48:41;96194.13;;;4.47;91.86
84310;BME280;74488;49.036;11.472;2024-01-06T03:49:43;96198.56;;;4.47;92.11
84310;BME280;74488;49.036;11.472;2024-01-06T03:50:45;96208.28;;;4.46;91.85
84310;BME280;74488;49.036;11.472;2024-01-06T03:51:46;96201.88;;;4.50;92.15
84310;BME280;74488;49.036;11.472;2024-01-06T03:52:48;96201.88;;;4.50;91.86
84310;BME280;74488;49.036;11.472;2024-01-06T03:53:50;96206.25;;;4.51;91.97
84310;BME280;74488;49.036;11.472;2024-01-06T03:54:51;96213.31;;;4.51;92.00
84310;BME280;74488;49.036;11.472;2024-01-06T03:55:53;96209.22;;;4.45;92.17
84310;BME280;74488;49.036;11.472;2024-01-06T03:56:54;96213.50;;;4.48;92.05
84310;BME280;74488;49.036;11.472;2024-01-06T03:57:56;96204.03;;;4.44;92.06
84310;BME280;74488;49.036;11.472;2024-01-06T03:58:57;96211.69;;;4.48;92.19
84310;BME280;74488;49.036;11.472;2024-01-06T03:59:59;96213.56;;;4.46;92.11
84310;BME280;74488;49.036;11.472;2024-01-06T04:01:01;96185.41;;;4.31;92.03
84310;BME280;74488;49.036;11.472;2024-01-06T04:02:02;96217.81;;;4.49;92.22
84310;BME280;74488;49.036;11.472;2024-01-06T04:03:04;96220.44;;;4.49;92.37
84310;BME280;74488;49.036;11.472;2024-01-06T04:04:07;96219.63;;;4.48;92.21
84310;BME280;74488;49.036;11.472;2024-01-06T04:05:08;96215.28;;;4.47;92.27
84310;BME280;74488;49.036;11.472;2024-01-06T04:06:10;96224.72;;;4.51;92.38
84310;BME280;74488;49.036;11.472;2024-01-06T04:07:12;96223.69;;;4.54;92.10
84310;BME280;74488;49.036;11.472;2024-01-06T04:08:14;96227.16;;;4.54;92.09
84310;BME280;74488;49.036;11.472;2024-01-06T04:09:15;96226.34;;;4.54;92.14
84310;BME280;74488;49.036;11.472;2024-01-06T04:10:19;96199.25;;;4.35;92.50
84310;BME280;74488;49.036;11.472;2024-01-06T04:11:21;96225.56;;;4.52;92.62
84310;BME280;74488;49.036;11.472;2024-01-06T04:12:23;96207.47;;;4.30;93.43
84310;BME280;74488;49.036;11.472;2024-01-06T04:13:24;96225.59;;;4.36;93.51
84310;BME280;74488;49.036;11.472;2024-01-06T04:14:27;96217.56;;;4.38;93.67
84310;BME280;74488;49.036;11.472;2024-01-06T04:15:28;96229.50;;;4.45;93.50
84310;BME280;74488;49.036;11.472;2024-01-06T04:16:30;96224.22;;;4.45;93.36
84310;BME280;74488;49.036;11.472;2024-01-06T04:17:31;96228.66;;;4.44;93.25
84310;BME280;74488;49.036;11.472;2024-01-06T04:18:33;96230.44;;;4.44;93.31
84310;BME280;74488;49.036;11.472;2024-01-06T04:19:34;96231.13;;;4.47;93.47
84310;BME280;74488;49.036;11.472;2024-01-06T04:20:36;96226.75;;;4.46;92.99
84310;BME280;74488;49.036;11.472;2024-01-06T04:21:38;96223.38;;;4.44;92.89
84310;BME280;74488;49.036;11.472;2024-01-06T04:22:40;96230.53;;;4.42;93.41
84310;BME280;74488;49.036;11.472;2024-01-06T04:23:41;96203.78;;;4.33;93.07
84310;BME280;74488;49.036;11.472;2024-01-06T04:24:43;96227.56;;;4.48;93.28
84310;BME280;74488;49.036;11.472;2024-01-06T04:25:44;96226.59;;;4.49;93.06
84310;BME280;74488;49.036;11.472;2024-01-06T04:26:46;96223.28;;;4.46;92.91
84310;BME280;74488;49.036;11.472;2024-01-06T04:27:47;96219.13;;;4.42;92.89
84310;BME280;74488;49.036;11.472;2024-01-06T04:28:50;96229.22;;;4.49;92.97
84310;BME280;74488;49.036;11.472;2024-01-06T04:29:51;96227.38;;;4.51;92.90
84310;BME280;74488;49.036;11.472;2024-01-06T04:30:54;96229.06;;;4.52;92.95
84310;BME280;74488;49.036;11.472;2024-01-06T04:31:56;96231.00;;;4.49;92.86
84310;BME280;74488;49.036;11.472;2024-01-06T04:32:57;96229.00;;;4.54;92.83
84310;BME280;74488;49.036;11.472;2024-01-06T04:33:59;96229.16;;;4.51;93.01
84310;BME280;74488;49.036;11.472;2024-01-06T04:35:01;96233.47;;;4.52;93.12
84310;BME280;74488;49.036;11.472;2024-01-06T04:36:02;96226.25;;;4.55;92.70
84310;BME280;74488;49.036;11.472;2024-01-06T04:37:04;96224.81;;;4.50;92.83
84310;BME280;74488;49.036;11.472;2024-01-06T04:38:06;96229.16;;;4.51;92.99
84310;BME280;74488;49.036;11.472;2024-01-06T04:39:07;96231.88;;;4.49;92.77
84310;BME280;74488;49.036;11.472;2024-01-06T04:40:10;96232.91;;;4.47;92.98
84310;BME280;74488;49.036;11.472;2024-01-06T04:41:11;96190.44;;;4.20;93.05
84310;BME280;74488;49.036;11.472;2024-01-06T04:42:13;96228.66;;;4.44;92.72
84310;BME280;74488;49.036;11.472;2024-01-06T04:43:14;96235.47;;;4.48;92.90
84310;BME280;74488;49.036;11.472;2024-01-06T04:44:19;96238.88;;;4.50;92.84
84310;BME280;74488;49.036;11.472;2024-01-06T04:45:21;96235.38;;;4.50;92.66
84310;BME280;74488;49.036;11.472;2024-01-06T04:46:25;96233.75;;;4.47;92.81
84310;BME280;74488;49.036;11.472;2024-01-06T04:47:26;96234.84;;;4.43;92.97
84310;BME280;74488;49.036;11.472;2024-01-06T04:48:29;96242.44;;;4.49;93.05
84310;BME280;74488;49.036;11.472;2024-01-06T04:49:30;96239.72;;;4.51;92.91
84310;BME280;74488;49.036;11.472;2024-01-06T04:50:32;96238.00;;;4.50;92.74
84310;BME280;74488;49.036;11.472;2024-01-06T04:51:34;96235.47;;;4.48;93.19
84310;BME280;74488;49.036;11.472;2024-01-06T04:52:35;96242.44;;;4.49;92.85
84310;BME280;74488;49.036;11.472;2024-01-06T04:53:37;96242.44;;;4.49;93.07
84310;BME280;74488;49.036;11.472;2024-01-06T04:54:39;96240.66;;;4.50;93.06
84310;BME280;74488;49.036;11.472;2024-01-06T04:55:40;96236.22;;;4.50;93.07
84310;BME280;74488;49.036;11.472;2024-01-06T04:56:42;96235.31;;;4.51;92.56
84310;BME280;74488;49.036;11.472;2024-01-06T04:57:43;96240.66;;;4.50;92.85
84310;BME280;74488;49.036;11.472;2024-01-06T04:58:45;96239.03;;;4.47;92.94
84310;BME280;74488;49.036;11.472;2024-01-06T04:59:46;96239.31;;;4.43;92.98
84310;BME280;74488;49.036;11.472;2024-01-06T05:00:48;96236.31;;;4.49;92.87
84310;BME280;74488;49.036;11.472;2024-01-06T05:01:51;96244.16;;;4.50;93.00
84310;BME280;74488;49.036;11.472;2024-01-06T05:02:54;96242.44;;;4.49;92.88
84310;BME280;74488;49.036;11.472;2024-01-06T05:03:55;96238.94;;;4.49;92.75
84310;BME280;74488;49.036;11.472;2024-01-06T05:04:57;96244.31;;;4.47;92.79
84310;BME280;74488;49.036;11.472;2024-01-06T05:05:59;96239.03;;;4.47;92.92
84310;BME280;74488;49.036;11.472;2024-01-06T05:07:00;96236.69;;;4.43;92.75
84310;BME280;74488;49.036;11.472;2024-01-06T05:08:02;96242.59;;;4.46;92.76
84310;BME280;74488;49.036;11.472;2024-01-06T05:09:04;96243.56;;;4.45;92.68
84310;BME280;74488;49.036;11.472;2024-01-06T05:10:06;96246.09;;;4.47;92.94
84310;BME280;74488;49.036;11.472;2024-01-06T05:11:08;96239.91;;;4.48;92.66
84310;BME280;74488;49.036;11.472;2024-01-06T05:12:09;96227.22;;;4.39;92.86
84310;BME280;74488;49.036;11.472;2024-01-06T05:13:11;96239.03;;;4.47;92.91
84310;BME280;74488;49.036;11.472;2024-01-06T05:14:12;96234.50;;;4.49;92.72
84310;BME280;74488;49.036;11.472;2024-01-06T05:15:14;96240.59;;;4.51;92.62
84310;BME280;74488;49.036;11.472;2024-01-06T05:16:15;96248.31;;;4.54;92.46
84310;BME280;74488;49.036;11.472;2024-01-06T05:17:17;96238.88;;;4.50;92.65
84310;BME280;74488;49.036;11.472;2024-01-06T05:18:18;96236.97;;;4.52;92.49
84310;BME280;74488;49.036;11.472;2024-01-06T05:19:20;96232.66;;;4.51;92.82
84310;BME280;74488;49.036;11.472;2024-01-06T05:20:23;96236.97;;;4.52;92.67
84310;BME280;74488;49.036;11.472;2024-01-06T05:21:24;96243.47;;;4.47;92.87
84310;BME280;74488;49.036;11.472;2024-01-06T05:22:27;96240.75;;;4.48;93.07
84310;BME280;74488;49.036;11.472;2024-01-06T05:23:29;96242.59;;;4.46;93.12
84310;BME280;74488;49.036;11.472;2024-01-06T05:24:30;96237.50;;;4.43;92.79
84310;BME280;74488;49.036;11.472;2024-01-06T05:25:32;96241.09;;;4.42;93.14
84310;BME280;74488;49.036;11.472;2024-01-06T05:26:33;96240.25;;;4.42;93.30
84310;BME280;74488;49.036;11.472;2024-01-06T05:27:35;96235.41;;;4.34;93.65